GIB016 GQNO-GVNP
Flight info
| Callsign | GIB016 |
|---|---|
| Flight time | 1h 28m |
| Altitude | 38000 |
| Route | AKDAD DCT SEPOM DCT OPADU DCT DISDA DISDA1H |
| Aircraft | A320/M-SDE3FGHIRWY/LB1 |
Departure
| Time | 2026-04-14 23:28 |
|---|---|
| Airport | Nouakchott–Oumtounsy International Airport (GQNO) |
Arrival
| Time | 2026-04-15 00:56 |
|---|---|
| Airport | Nelson Mandela International Airport (GVNP) |
| Time | Latitude | Longitude | Altitude | Speed | Heading |
|---|---|---|---|---|---|
| 2026-04-14 23:28 | 18.47950 | -16.12816 | 10168 ft | 293 kts | 265° |
| 2026-04-14 23:28 | 18.47497 | -16.14996 | 10467 ft | 317 kts | 255° |
| 2026-04-14 23:28 | 18.46842 | -16.17298 | 10808 ft | 335 kts | 254° |
| 2026-04-14 23:28 | 18.46145 | -16.19673 | 11439 ft | 343 kts | 253° |
| 2026-04-14 23:29 | 18.45442 | -16.22053 | 12140 ft | 347 kts | 254° |
| 2026-04-14 23:29 | 18.44723 | -16.24503 | 12859 ft | 352 kts | 254° |
| 2026-04-14 23:29 | 18.44007 | -16.26983 | 13565 ft | 356 kts | 255° |
| 2026-04-14 23:29 | 18.43289 | -16.29495 | 14191 ft | 360 kts | 254° |
| 2026-04-14 23:30 | 18.42566 | -16.32025 | 14856 ft | 362 kts | 254° |
| 2026-04-14 23:30 | 18.41839 | -16.34576 | 15544 ft | 363 kts | 254° |
| 2026-04-14 23:30 | 18.41116 | -16.37122 | 16261 ft | 364 kts | 254° |
| 2026-04-14 23:30 | 18.40388 | -16.39681 | 16946 ft | 365 kts | 253° |
| 2026-04-14 23:31 | 18.39655 | -16.42249 | 17614 ft | 367 kts | 253° |
| 2026-04-14 23:31 | 18.38919 | -16.44826 | 18291 ft | 369 kts | 253° |
| 2026-04-14 23:31 | 18.38178 | -16.47411 | 18923 ft | 369 kts | 253° |
| 2026-04-14 23:31 | 18.37434 | -16.50000 | 19567 ft | 369 kts | 253° |
| 2026-04-14 23:32 | 18.36689 | -16.52590 | 20213 ft | 370 kts | 253° |
| 2026-04-14 23:32 | 18.35943 | -16.55182 | 20858 ft | 370 kts | 253° |
| 2026-04-14 23:32 | 18.35195 | -16.57783 | 21499 ft | 371 kts | 253° |
| 2026-04-14 23:32 | 18.34446 | -16.60389 | 22133 ft | 372 kts | 253° |
| 2026-04-14 23:33 | 18.33698 | -16.62998 | 22762 ft | 373 kts | 253° |
| 2026-04-14 23:33 | 18.32945 | -16.65618 | 23376 ft | 374 kts | 253° |
| 2026-04-14 23:33 | 18.32190 | -16.68242 | 23883 ft | 375 kts | 253° |
| 2026-04-14 23:33 | 18.31432 | -16.70874 | 24376 ft | 375 kts | 253° |
| 2026-04-14 23:34 | 18.30671 | -16.73508 | 24864 ft | 376 kts | 253° |
| 2026-04-14 23:34 | 18.29912 | -16.76140 | 25335 ft | 376 kts | 253° |
| 2026-04-14 23:34 | 18.29153 | -16.78774 | 25795 ft | 377 kts | 253° |
| 2026-04-14 23:34 | 18.28392 | -16.81419 | 26244 ft | 378 kts | 252° |
| 2026-04-14 23:35 | 18.27627 | -16.84064 | 26685 ft | 378 kts | 252° |
| 2026-04-14 23:35 | 18.26862 | -16.86707 | 27118 ft | 379 kts | 252° |
| 2026-04-14 23:35 | 18.26093 | -16.89372 | 27549 ft | 380 kts | 252° |
| 2026-04-14 23:35 | 18.25325 | -16.92038 | 27978 ft | 381 kts | 252° |
| 2026-04-14 23:36 | 18.24555 | -16.94702 | 28391 ft | 381 kts | 252° |
| 2026-04-14 23:36 | 18.23783 | -16.97374 | 28784 ft | 383 kts | 252° |
| 2026-04-14 23:36 | 18.23009 | -17.00057 | 29175 ft | 383 kts | 252° |
| 2026-04-14 23:36 | 18.22231 | -17.02741 | 29556 ft | 384 kts | 251° |
| 2026-04-14 23:37 | 18.21463 | -17.05394 | 29926 ft | 385 kts | 252° |
| 2026-04-14 23:37 | 18.20678 | -17.08100 | 30237 ft | 386 kts | 251° |
| 2026-04-14 23:37 | 18.19891 | -17.10805 | 30502 ft | 388 kts | 251° |
| 2026-04-14 23:37 | 18.19097 | -17.13520 | 30754 ft | 389 kts | 251° |
| 2026-04-14 23:38 | 18.18300 | -17.16249 | 30998 ft | 391 kts | 251° |
| 2026-04-14 23:38 | 18.17501 | -17.18990 | 31241 ft | 393 kts | 251° |
| 2026-04-14 23:38 | 18.16700 | -17.21745 | 31490 ft | 394 kts | 251° |
| 2026-04-14 23:38 | 18.15901 | -17.24496 | 31826 ft | 393 kts | 251° |
| 2026-04-14 23:39 | 18.15104 | -17.27245 | 32165 ft | 392 kts | 251° |
| 2026-04-14 23:39 | 18.14311 | -17.29975 | 32505 ft | 391 kts | 250° |
| 2026-04-14 23:39 | 18.13515 | -17.32708 | 32839 ft | 390 kts | 250° |
| 2026-04-14 23:39 | 18.12721 | -17.35427 | 33180 ft | 389 kts | 250° |
| 2026-04-14 23:40 | 18.12194 | -17.37230 | 33395 ft | 388 kts | 250° |
| 2026-04-14 23:40 | 18.11401 | -17.39938 | 33748 ft | 387 kts | 250° |
| 2026-04-14 23:40 | 18.10608 | -17.42642 | 34079 ft | 386 kts | 250° |
| 2026-04-14 23:40 | 18.09818 | -17.45337 | 34396 ft | 385 kts | 250° |
| 2026-04-14 23:41 | 18.08780 | -17.48881 | 34813 ft | 382 kts | 250° |
| 2026-04-14 23:41 | 18.08251 | -17.50683 | 35015 ft | 381 kts | 250° |
| 2026-04-14 23:41 | 18.07470 | -17.53341 | 35303 ft | 380 kts | 251° |
| 2026-04-14 23:41 | 18.06694 | -17.55990 | 35590 ft | 378 kts | 251° |
| 2026-04-14 23:42 | 18.05922 | -17.58628 | 35864 ft | 377 kts | 251° |
| 2026-04-14 23:42 | 18.05148 | -17.61262 | 36138 ft | 376 kts | 251° |
| 2026-04-14 23:42 | 18.04389 | -17.63845 | 36396 ft | 375 kts | 251° |
| 2026-04-14 23:42 | 18.03620 | -17.66462 | 36650 ft | 374 kts | 251° |
| 2026-04-14 23:43 | 18.02857 | -17.69064 | 36897 ft | 372 kts | 251° |
| 2026-04-14 23:43 | 18.02096 | -17.71664 | 37143 ft | 371 kts | 251° |
| 2026-04-14 23:43 | 18.01336 | -17.74253 | 37379 ft | 370 kts | 251° |
| 2026-04-14 23:43 | 18.00575 | -17.76834 | 37627 ft | 369 kts | 251° |
| 2026-04-14 23:44 | 17.99816 | -17.79403 | 37846 ft | 368 kts | 251° |
| 2026-04-14 23:44 | 17.99056 | -17.81974 | 37926 ft | 368 kts | 251° |
| 2026-04-14 23:44 | 17.97547 | -17.87095 | 37940 ft | 367 kts | 251° |
| 2026-04-14 23:45 | 17.96035 | -17.92214 | 37939 ft | 366 kts | 251° |
| 2026-04-14 23:45 | 17.94528 | -17.97325 | 37950 ft | 366 kts | 251° |
| 2026-04-14 23:46 | 17.93016 | -18.02432 | 37946 ft | 366 kts | 251° |
| 2026-04-14 23:46 | 17.91497 | -18.07541 | 37943 ft | 366 kts | 251° |
| 2026-04-14 23:47 | 17.89984 | -18.12650 | 37919 ft | 367 kts | 251° |
| 2026-04-14 23:47 | 17.88468 | -18.17769 | 37937 ft | 367 kts | 251° |
| 2026-04-14 23:48 | 17.86948 | -18.22861 | 37949 ft | 368 kts | 251° |
| 2026-04-14 23:48 | 17.85423 | -18.27993 | 37958 ft | 368 kts | 251° |
| 2026-04-14 23:49 | 17.83898 | -18.33116 | 37966 ft | 368 kts | 251° |
| 2026-04-14 23:49 | 17.82367 | -18.38249 | 37965 ft | 368 kts | 251° |
| 2026-04-14 23:50 | 17.80833 | -18.43383 | 37967 ft | 369 kts | 251° |
| 2026-04-14 23:50 | 17.79301 | -18.48521 | 37979 ft | 369 kts | 251° |
| 2026-04-14 23:51 | 17.77766 | -18.53652 | 37976 ft | 369 kts | 251° |
| 2026-04-14 23:51 | 17.76230 | -18.58782 | 37971 ft | 369 kts | 251° |
| 2026-04-14 23:52 | 17.74695 | -18.63910 | 37968 ft | 368 kts | 251° |
| 2026-04-14 23:52 | 17.73152 | -18.69032 | 37972 ft | 368 kts | 251° |
| 2026-04-14 23:53 | 17.71609 | -18.74156 | 37970 ft | 368 kts | 251° |
| 2026-04-14 23:53 | 17.70077 | -18.79279 | 37969 ft | 368 kts | 251° |
| 2026-04-14 23:54 | 17.68540 | -18.84401 | 37957 ft | 368 kts | 251° |
| 2026-04-14 23:54 | 17.67007 | -18.89485 | 37967 ft | 368 kts | 251° |
| 2026-04-14 23:55 | 17.65466 | -18.94599 | 37966 ft | 368 kts | 251° |
| 2026-04-14 23:55 | 17.63923 | -18.99711 | 37967 ft | 368 kts | 251° |
| 2026-04-14 23:56 | 17.62378 | -19.04818 | 37970 ft | 367 kts | 251° |
| 2026-04-14 23:56 | 17.60836 | -19.09922 | 37960 ft | 367 kts | 251° |
| 2026-04-14 23:57 | 17.59287 | -19.15025 | 37970 ft | 368 kts | 252° |
| 2026-04-14 23:57 | 17.57737 | -19.20132 | 37964 ft | 368 kts | 252° |
| 2026-04-14 23:58 | 17.56185 | -19.25246 | 37970 ft | 368 kts | 252° |
| 2026-04-14 23:58 | 17.54634 | -19.30374 | 37968 ft | 369 kts | 251° |
| 2026-04-14 23:59 | 17.53070 | -19.35493 | 37967 ft | 369 kts | 251° |
| 2026-04-14 23:59 | 17.51508 | -19.40618 | 37976 ft | 369 kts | 252° |
| 2026-04-15 00:00 | 17.49964 | -19.45707 | 37978 ft | 369 kts | 252° |
| 2026-04-15 00:00 | 17.48407 | -19.50823 | 37966 ft | 369 kts | 252° |
| 2026-04-15 00:01 | 17.46845 | -19.55945 | 37974 ft | 369 kts | 252° |
| 2026-04-15 00:01 | 17.45279 | -19.61065 | 37974 ft | 369 kts | 252° |
| 2026-04-15 00:02 | 17.43718 | -19.66184 | 37977 ft | 369 kts | 252° |
| 2026-04-15 00:02 | 17.42162 | -19.71262 | 37976 ft | 369 kts | 252° |
| 2026-04-15 00:03 | 17.40595 | -19.76371 | 37941 ft | 369 kts | 252° |
| 2026-04-15 00:03 | 17.39022 | -19.81485 | 37943 ft | 369 kts | 252° |
| 2026-04-15 00:04 | 17.37446 | -19.86600 | 37957 ft | 369 kts | 252° |
| 2026-04-15 00:04 | 17.35876 | -19.91724 | 37962 ft | 370 kts | 252° |
| 2026-04-15 00:05 | 17.34305 | -19.96849 | 37968 ft | 370 kts | 252° |
| 2026-04-15 00:05 | 17.32090 | -20.01687 | 37971 ft | 373 kts | 236° |
| 2026-04-15 00:06 | 17.28920 | -20.05990 | 37971 ft | 373 kts | 236° |
| 2026-04-15 00:06 | 17.25742 | -20.10294 | 37974 ft | 374 kts | 236° |
| 2026-04-15 00:07 | 17.22563 | -20.14599 | 37980 ft | 374 kts | 236° |
| 2026-04-15 00:07 | 17.19388 | -20.18912 | 37972 ft | 374 kts | 236° |
| 2026-04-15 00:08 | 17.16203 | -20.23229 | 37972 ft | 375 kts | 236° |
| 2026-04-15 00:08 | 17.13020 | -20.27547 | 37975 ft | 375 kts | 236° |
| 2026-04-15 00:09 | 17.09847 | -20.31842 | 37976 ft | 375 kts | 236° |
| 2026-04-15 00:09 | 17.06642 | -20.36162 | 37974 ft | 376 kts | 236° |
| 2026-04-15 00:10 | 17.03446 | -20.40477 | 37976 ft | 376 kts | 236° |
| 2026-04-15 00:10 | 17.00246 | -20.44794 | 37979 ft | 376 kts | 236° |
| 2026-04-15 00:11 | 16.97048 | -20.49114 | 37978 ft | 376 kts | 236° |
| 2026-04-15 00:11 | 16.93848 | -20.53436 | 37975 ft | 376 kts | 236° |
| 2026-04-15 00:12 | 16.90641 | -20.57754 | 37975 ft | 377 kts | 236° |
| 2026-04-15 00:12 | 16.87428 | -20.62078 | 37977 ft | 377 kts | 236° |
| 2026-04-15 00:13 | 16.84219 | -20.66404 | 37977 ft | 377 kts | 236° |
| 2026-04-15 00:13 | 16.81003 | -20.70729 | 37973 ft | 377 kts | 236° |
| 2026-04-15 00:14 | 16.77789 | -20.75044 | 37974 ft | 377 kts | 236° |
| 2026-04-15 00:14 | 16.74576 | -20.79364 | 37975 ft | 377 kts | 236° |
| 2026-04-15 00:15 | 16.71379 | -20.83657 | 37981 ft | 377 kts | 236° |
| 2026-04-15 00:15 | 16.68154 | -20.87981 | 37980 ft | 378 kts | 236° |
| 2026-04-15 00:16 | 16.64924 | -20.92304 | 37971 ft | 378 kts | 236° |
| 2026-04-15 00:16 | 16.61696 | -20.96635 | 37953 ft | 378 kts | 236° |
| 2026-04-15 00:17 | 16.58469 | -21.00966 | 37966 ft | 378 kts | 236° |
| 2026-04-15 00:17 | 16.55240 | -21.05296 | 37970 ft | 378 kts | 236° |
| 2026-04-15 00:18 | 16.50385 | -21.11781 | 37977 ft | 378 kts | 236° |
| 2026-04-15 00:19 | 16.47145 | -21.16112 | 37976 ft | 378 kts | 236° |
| 2026-04-15 00:19 | 16.43903 | -21.20440 | 37976 ft | 379 kts | 236° |
| 2026-04-15 00:20 | 16.40668 | -21.24769 | 37976 ft | 379 kts | 237° |
| 2026-04-15 00:20 | 16.37423 | -21.29099 | 37979 ft | 379 kts | 236° |
| 2026-04-15 00:21 | 16.34172 | -21.33425 | 37977 ft | 379 kts | 236° |
| 2026-04-15 00:21 | 16.30923 | -21.37746 | 37970 ft | 379 kts | 236° |
| 2026-04-15 00:22 | 16.27697 | -21.42043 | 37973 ft | 379 kts | 236° |
| 2026-04-15 00:22 | 16.24452 | -21.46367 | 37947 ft | 379 kts | 237° |
| 2026-04-15 00:23 | 16.21202 | -21.50701 | 37959 ft | 379 kts | 237° |
| 2026-04-15 00:23 | 16.17949 | -21.55023 | 37969 ft | 380 kts | 237° |
| 2026-04-15 00:24 | 16.14689 | -21.59347 | 37973 ft | 380 kts | 237° |
| 2026-04-15 00:24 | 16.11431 | -21.63670 | 37978 ft | 380 kts | 237° |
| 2026-04-15 00:25 | 16.08177 | -21.67992 | 37984 ft | 379 kts | 237° |
| 2026-04-15 00:25 | 16.04921 | -21.72310 | 37979 ft | 379 kts | 237° |
| 2026-04-15 00:26 | 16.01662 | -21.76632 | 37978 ft | 379 kts | 237° |
| 2026-04-15 00:26 | 15.98952 | -21.80216 | 37979 ft | 380 kts | 237° |
| 2026-04-15 00:27 | 15.95684 | -21.84531 | 37985 ft | 380 kts | 237° |
| 2026-04-15 00:27 | 15.93142 | -21.89242 | 37981 ft | 372 kts | 254° |
| 2026-04-15 00:28 | 15.91579 | -21.94366 | 37979 ft | 372 kts | 254° |
| 2026-04-15 00:28 | 15.89984 | -21.99486 | 37978 ft | 372 kts | 253° |
| 2026-04-15 00:29 | 15.88389 | -22.04610 | 37977 ft | 372 kts | 254° |
| 2026-04-15 00:29 | 15.86801 | -22.09731 | 37977 ft | 373 kts | 254° |
| 2026-04-15 00:30 | 15.85208 | -22.14854 | 37942 ft | 372 kts | 254° |
| 2026-04-15 00:30 | 15.83629 | -22.19965 | 37420 ft | 371 kts | 254° |
| 2026-04-15 00:30 | 15.82838 | -22.22523 | 36961 ft | 372 kts | 254° |
| 2026-04-15 00:31 | 15.82048 | -22.25078 | 36503 ft | 373 kts | 254° |
| 2026-04-15 00:31 | 15.81251 | -22.27645 | 36052 ft | 374 kts | 254° |
| 2026-04-15 00:31 | 15.80450 | -22.30221 | 35624 ft | 375 kts | 254° |
| 2026-04-15 00:31 | 15.79649 | -22.32804 | 35199 ft | 377 kts | 254° |
| 2026-04-15 00:32 | 15.78842 | -22.35395 | 34778 ft | 378 kts | 253° |
| 2026-04-15 00:32 | 15.78040 | -22.37965 | 34369 ft | 379 kts | 253° |
| 2026-04-15 00:32 | 15.77225 | -22.40576 | 33959 ft | 380 kts | 253° |
| 2026-04-15 00:32 | 15.76413 | -22.43184 | 33489 ft | 379 kts | 253° |
| 2026-04-15 00:33 | 15.75606 | -22.45778 | 33030 ft | 377 kts | 253° |
| 2026-04-15 00:33 | 15.74800 | -22.48363 | 32577 ft | 375 kts | 253° |
| 2026-04-15 00:33 | 15.73997 | -22.50933 | 32133 ft | 374 kts | 253° |
| 2026-04-15 00:33 | 15.73193 | -22.53501 | 31693 ft | 372 kts | 253° |
| 2026-04-15 00:34 | 15.72394 | -22.56054 | 31261 ft | 371 kts | 253° |
| 2026-04-15 00:34 | 15.71600 | -22.58596 | 30834 ft | 370 kts | 253° |
| 2026-04-15 00:34 | 15.70809 | -22.61128 | 30420 ft | 369 kts | 253° |
| 2026-04-15 00:34 | 15.70020 | -22.63656 | 29997 ft | 367 kts | 252° |
| 2026-04-15 00:35 | 15.69232 | -22.66175 | 29515 ft | 366 kts | 252° |
| 2026-04-15 00:35 | 15.68446 | -22.68679 | 29039 ft | 364 kts | 252° |
| 2026-04-15 00:35 | 15.67665 | -22.71174 | 28566 ft | 362 kts | 252° |
| 2026-04-15 00:35 | 15.66891 | -22.73652 | 28104 ft | 360 kts | 252° |
| 2026-04-15 00:36 | 15.66120 | -22.76120 | 27648 ft | 359 kts | 252° |
| 2026-04-15 00:36 | 15.65351 | -22.78578 | 27205 ft | 357 kts | 252° |
| 2026-04-15 00:36 | 15.64583 | -22.81022 | 26766 ft | 355 kts | 252° |
| 2026-04-15 00:36 | 15.63818 | -22.83456 | 26335 ft | 354 kts | 252° |
| 2026-04-15 00:37 | 15.63068 | -22.85848 | 25918 ft | 352 kts | 252° |
| 2026-04-15 00:37 | 15.62315 | -22.88256 | 25493 ft | 351 kts | 252° |
| 2026-04-15 00:37 | 15.61559 | -22.90665 | 25077 ft | 350 kts | 252° |
| 2026-04-15 00:37 | 15.60807 | -22.93055 | 24668 ft | 348 kts | 252° |
| 2026-04-15 00:38 | 15.60055 | -22.95444 | 24265 ft | 347 kts | 252° |
| 2026-04-15 00:38 | 15.59308 | -22.97818 | 23865 ft | 346 kts | 252° |
| 2026-04-15 00:38 | 15.58567 | -23.00187 | 23459 ft | 345 kts | 252° |
| 2026-04-15 00:38 | 15.57827 | -23.02548 | 22989 ft | 344 kts | 252° |
| 2026-04-15 00:39 | 15.57085 | -23.04905 | 22516 ft | 343 kts | 252° |
| 2026-04-15 00:39 | 15.56343 | -23.07253 | 22056 ft | 342 kts | 252° |
| 2026-04-15 00:39 | 15.55604 | -23.09591 | 21602 ft | 341 kts | 251° |
| 2026-04-15 00:39 | 15.54601 | -23.11808 | 21153 ft | 341 kts | 238° |
| 2026-04-15 00:40 | 15.53109 | -23.13711 | 20715 ft | 342 kts | 225° |
| 2026-04-15 00:40 | 15.51213 | -23.15197 | 20282 ft | 344 kts | 212° |
| 2026-04-15 00:40 | 15.49026 | -23.16214 | 19865 ft | 345 kts | 204° |
| 2026-04-15 00:40 | 15.46785 | -23.17097 | 19431 ft | 344 kts | 204° |
| 2026-04-15 00:41 | 15.44550 | -23.17979 | 19021 ft | 342 kts | 203° |
| 2026-04-15 00:41 | 15.42327 | -23.18858 | 18611 ft | 341 kts | 203° |
| 2026-04-15 00:41 | 15.40118 | -23.19731 | 18196 ft | 339 kts | 202° |
| 2026-04-15 00:41 | 15.37919 | -23.20600 | 17731 ft | 338 kts | 202° |
| 2026-04-15 00:42 | 15.35723 | -23.21467 | 17335 ft | 337 kts | 202° |
| 2026-04-15 00:42 | 15.33536 | -23.22329 | 16957 ft | 336 kts | 202° |
| 2026-04-15 00:42 | 15.31350 | -23.23190 | 16588 ft | 335 kts | 202° |
| 2026-04-15 00:42 | 15.29171 | -23.24049 | 16219 ft | 335 kts | 203° |
| 2026-04-15 00:43 | 15.27014 | -23.24902 | 15858 ft | 334 kts | 203° |
| 2026-04-15 00:43 | 15.24831 | -23.25764 | 15497 ft | 333 kts | 203° |
| 2026-04-15 00:43 | 15.22668 | -23.26618 | 15137 ft | 332 kts | 203° |
| 2026-04-15 00:43 | 15.20509 | -23.27468 | 14787 ft | 331 kts | 203° |
| 2026-04-15 00:44 | 15.18359 | -23.28315 | 14441 ft | 331 kts | 203° |
| 2026-04-15 00:44 | 15.16210 | -23.29160 | 14096 ft | 330 kts | 203° |
| 2026-04-15 00:44 | 15.14064 | -23.30000 | 13753 ft | 329 kts | 203° |
| 2026-04-15 00:44 | 15.11923 | -23.30841 | 13371 ft | 328 kts | 203° |
| 2026-04-15 00:45 | 15.09793 | -23.31679 | 12990 ft | 328 kts | 203° |
| 2026-04-15 00:45 | 15.07663 | -23.32518 | 12606 ft | 327 kts | 204° |
| 2026-04-15 00:45 | 15.05541 | -23.33352 | 12237 ft | 326 kts | 202° |
| 2026-04-15 00:45 | 15.03423 | -23.34185 | 11872 ft | 325 kts | 202° |
| 2026-04-15 00:46 | 15.01303 | -23.35017 | 11511 ft | 325 kts | 204° |
| 2026-04-15 00:46 | 14.99203 | -23.35841 | 11149 ft | 321 kts | 204° |
| 2026-04-15 00:46 | 14.97128 | -23.36656 | 10768 ft | 319 kts | 204° |
| 2026-04-15 00:46 | 14.95070 | -23.37463 | 10311 ft | 311 kts | 202° |
| 2026-04-15 00:47 | 14.93083 | -23.38241 | 9865 ft | 300 kts | 202° |
| 2026-04-15 00:47 | 14.91164 | -23.38993 | 9393 ft | 291 kts | 203° |
| 2026-04-15 00:47 | 14.89303 | -23.39725 | 8923 ft | 282 kts | 203° |
| 2026-04-15 00:47 | 14.87488 | -23.40437 | 8450 ft | 275 kts | 203° |
| 2026-04-15 00:48 | 14.85726 | -23.41129 | 7992 ft | 268 kts | 203° |
| 2026-04-15 00:48 | 14.84031 | -23.41796 | 7548 ft | 262 kts | 202° |
| 2026-04-15 00:48 | 14.82340 | -23.42462 | 7097 ft | 259 kts | 202° |
| 2026-04-15 00:48 | 14.80658 | -23.43125 | 6656 ft | 258 kts | 202° |
| 2026-04-15 00:49 | 14.78966 | -23.43790 | 6204 ft | 262 kts | 202° |
| 2026-04-15 00:49 | 14.77248 | -23.44466 | 5741 ft | 265 kts | 201° |
| 2026-04-15 00:49 | 14.75544 | -23.45135 | 5275 ft | 259 kts | 202° |
| 2026-04-15 00:49 | 14.74021 | -23.46057 | 4827 ft | 252 kts | 225° |
| 2026-04-15 00:50 | 14.73047 | -23.47481 | 4503 ft | 237 kts | 250° |
| 2026-04-15 00:50 | 14.72717 | -23.49080 | 4217 ft | 221 kts | 273° |
| 2026-04-15 00:50 | 14.72956 | -23.50567 | 3952 ft | 202 kts | 294° |
| 2026-04-15 00:50 | 14.73468 | -23.51873 | 3716 ft | 192 kts | 296° |
| 2026-04-15 00:51 | 14.73971 | -23.53146 | 3566 ft | 190 kts | 295° |
| 2026-04-15 00:51 | 14.74520 | -23.54341 | 3415 ft | 178 kts | 309° |
| 2026-04-15 00:51 | 14.75405 | -23.55152 | 3274 ft | 166 kts | 335° |
| 2026-04-15 00:51 | 14.76486 | -23.55481 | 3129 ft | 161 kts | 358° |
| 2026-04-15 00:52 | 14.77560 | -23.55338 | 2971 ft | 152 kts | 21° |
| 2026-04-15 00:52 | 14.78531 | -23.54935 | 2821 ft | 150 kts | 22° |
| 2026-04-15 00:52 | 14.79490 | -23.54538 | 2676 ft | 147 kts | 22° |
| 2026-04-15 00:52 | 14.80438 | -23.54144 | 2525 ft | 146 kts | 21° |
| 2026-04-15 00:53 | 14.81389 | -23.53751 | 2461 ft | 147 kts | 22° |
| 2026-04-15 00:53 | 14.82337 | -23.53360 | 2432 ft | 146 kts | 22° |
| 2026-04-15 00:53 | 14.83274 | -23.52971 | 2412 ft | 145 kts | 22° |
| 2026-04-15 00:53 | 14.84222 | -23.52578 | 2193 ft | 147 kts | 21° |
| 2026-04-15 00:54 | 14.85161 | -23.52188 | 1992 ft | 145 kts | 23° |
| 2026-04-15 00:54 | 14.86101 | -23.51799 | 1792 ft | 145 kts | 22° |
| 2026-04-15 00:54 | 14.87018 | -23.51418 | 1606 ft | 140 kts | 23° |
| 2026-04-15 00:54 | 14.87909 | -23.51050 | 1415 ft | 137 kts | 22° |
| 2026-04-15 00:55 | 14.88790 | -23.50685 | 1237 ft | 136 kts | 22° |
| 2026-04-15 00:55 | 14.89670 | -23.50320 | 1056 ft | 135 kts | 23° |
| 2026-04-15 00:55 | 14.90534 | -23.49961 | 886 ft | 133 kts | 23° |
| 2026-04-15 00:55 | 14.91383 | -23.49609 | 713 ft | 130 kts | 23° |
| 2026-04-15 00:56 | 14.92216 | -23.49264 | 542 ft | 127 kts | 21° |
| 2026-04-15 00:56 | 14.93032 | -23.48925 | 373 ft | 125 kts | 23° |
| 2026-04-15 00:56 | 14.93756 | -23.48621 | 308 ft | 79 kts | 21° |
| 2026-04-15 00:56 | 14.94111 | -23.48476 | 310 ft | 45 kts | 22° |
| 2026-04-15 00:57 | 14.94262 | -23.48413 | 310 ft | 15 kts | 17° |
| 2026-04-15 00:57 | 14.94342 | -23.48456 | 311 ft | 13 kts | 300° |
| 2026-04-15 00:57 | 14.94382 | -23.48513 | 312 ft | 9 kts | 331° |
| 2026-04-15 00:57 | 14.94436 | -23.48510 | 312 ft | 6 kts | 20° |
| 2026-04-15 00:58 | 14.94461 | -23.48530 | 312 ft | 4 kts | 307° |
| 2026-04-15 00:58 | 14.94474 | -23.48554 | 311 ft | 4 kts | 297° |
| 2026-04-15 00:58 | 14.94475 | -23.48557 | 312 ft | 0 kts | 294° |
| 2026-04-15 00:58 | 14.94477 | -23.48561 | 312 ft | 2 kts | 294° |
| 2026-04-15 00:59 | 14.94480 | -23.48568 | 312 ft | 0 kts | 294° |